El Colorado, Argentina
Current Conditions -  °F | °C
As of 10:00 PM on Saturday 25 Oct 2014 (Local Time) from SARF Reporting Station
Clear Clear  
Wind Chill: 26°   Ceiling: Unl
Heat Index: 27°   Visibility: 6mi
Dew Point: 18°   Wind: 5mph
Humidity: 61%   Direction: 110°ESE
Pressure: 29.8"   Gusts: NA
Location:  26.3°S, 59.37°W
Report Text: SARF 260100Z 11004KT CAVOK 26/18 Q1009
Loading
Personal Weather Stations






























Interactive Weather Map
Tropical Storm Tracking
New forecast layout! Learn more

10-Day Weather Forecast

Advertisements
Track Severe Weather on mobile